createdAt,value
2022-07-31T00:01:30.380Z,4.85
2022-07-31T00:03:57.864Z,4.95
2022-07-31T00:06:25.475Z,5.00
2022-07-31T00:08:52.818Z,6.35
2022-07-31T00:11:20.253Z,5.18
2022-07-31T00:13:58.012Z,4.65
2022-07-31T00:16:26.290Z,5.05
2022-07-31T00:18:53.710Z,5.07
2022-07-31T00:21:21.228Z,5.20
2022-07-31T00:23:48.579Z,5.35
2022-07-31T00:26:15.926Z,4.50
2022-07-31T00:28:43.240Z,4.57
2022-07-31T00:31:11.159Z,5.93
2022-07-31T00:33:38.560Z,4.90
2022-07-31T00:36:06.459Z,4.53
2022-07-31T00:38:34.278Z,6.85
2022-07-31T00:41:03.287Z,5.78
2022-07-31T00:43:31.092Z,5.57
2022-07-31T00:45:59.544Z,5.63
2022-07-31T00:48:27.692Z,5.88
2022-07-31T00:50:55.711Z,5.32
2022-07-31T00:53:23.056Z,5.70
2022-07-31T00:55:51.257Z,5.63
2022-07-31T00:58:20.459Z,5.75
2022-07-31T01:00:48.193Z,5.90
2022-07-31T01:03:16.517Z,5.32
2022-07-31T01:05:43.813Z,5.60
2022-07-31T01:08:11.164Z,5.60
2022-07-31T01:10:44.645Z,5.63
2022-07-31T01:13:19.352Z,5.30
2022-07-31T01:15:47.511Z,6.78
2022-07-31T01:18:17.281Z,6.32
2022-07-31T01:20:46.037Z,7.25
2022-07-31T01:23:23.022Z,6.25
2022-07-31T01:26:08.819Z,5.93
2022-07-31T01:28:48.285Z,5.43
2022-07-31T01:31:27.892Z,6.03
2022-07-31T01:34:21.733Z,6.10
2022-07-31T01:36:54.186Z,6.25
2022-07-31T01:39:21.657Z,6.43
2022-07-31T01:42:09.494Z,6.18
2022-07-31T01:44:45.336Z,5.68
2022-07-31T01:47:15.218Z,6.30
2022-07-31T01:49:43.799Z,6.85
2022-07-31T01:52:11.525Z,7.88
2022-07-31T01:54:39.442Z,8.68
2022-07-31T01:57:07.909Z,7.47
2022-07-31T01:59:37.325Z,7.18
2022-07-31T02:02:10.178Z,7.50
2022-07-31T02:04:39.712Z,7.30
2022-07-31T02:07:08.478Z,7.65
2022-07-31T02:09:36.988Z,8.68
2022-07-31T02:12:09.853Z,8.23
2022-07-31T02:14:39.126Z,8.13
2022-07-31T02:17:06.824Z,7.35
2022-07-31T02:19:35.909Z,7.60
2022-07-31T02:22:03.435Z,7.88
2022-07-31T02:24:30.948Z,7.38
2022-07-31T02:26:58.585Z,8.13
2022-07-31T02:29:26.467Z,6.95
2022-07-31T02:32:03.183Z,7.65
2022-07-31T02:34:32.225Z,6.63
2022-07-31T02:37:00.434Z,6.40
2022-07-31T02:39:30.608Z,7.35
2022-07-31T02:42:01.839Z,6.45
2022-07-31T02:44:32.311Z,7.35
2022-07-31T02:47:02.577Z,6.85
2022-07-31T02:49:30.634Z,6.45
2022-07-31T02:51:58.619Z,5.88
2022-07-31T02:54:26.291Z,6.95
2022-07-31T02:56:54.389Z,6.57
2022-07-31T02:59:24.834Z,6.35
2022-07-31T03:01:52.249Z,7.53
2022-07-31T03:04:19.597Z,6.30
2022-07-31T03:06:48.725Z,6.72
2022-07-31T03:09:16.489Z,6.15
2022-07-31T03:11:44.242Z,6.45
2022-07-31T03:14:13.522Z,6.53
2022-07-31T03:16:42.069Z,6.30
2022-07-31T03:19:10.011Z,5.90
2022-07-31T03:21:40.069Z,5.93
2022-07-31T03:24:07.503Z,5.97
2022-07-31T03:26:34.942Z,6.22
2022-07-31T03:29:02.380Z,6.18
2022-07-31T03:31:30.305Z,6.53
2022-07-31T03:33:57.995Z,7.20
2022-07-31T03:36:26.605Z,6.50
2022-07-31T03:38:54.154Z,7.57
2022-07-31T03:41:21.732Z,6.43
2022-07-31T03:43:49.436Z,7.47
2022-07-31T03:46:17.992Z,8.60
2022-07-31T03:48:46.002Z,8.15
2022-07-31T03:51:13.729Z,9.52
2022-07-31T03:53:41.475Z,10.05
2022-07-31T03:56:09.097Z,10.43
2022-07-31T03:58:37.991Z,12.05
2022-07-31T04:01:10.605Z,11.70
2022-07-31T04:03:39.806Z,11.20
2022-07-31T04:06:07.689Z,11.68
2022-07-31T04:08:35.488Z,10.07
2022-07-31T04:11:02.749Z,10.35
2022-07-31T04:13:30.134Z,9.65
2022-07-31T04:15:57.466Z,9.68
2022-07-31T04:18:24.968Z,9.98
2022-07-31T04:20:52.246Z,10.02
2022-07-31T04:23:19.689Z,10.80
2022-07-31T04:25:49.700Z,9.93
2022-07-31T04:28:17.188Z,9.10
2022-07-31T04:30:44.565Z,7.80
2022-07-31T04:33:12.090Z,8.52
2022-07-31T04:35:40.416Z,8.95
2022-07-31T04:38:09.037Z,8.52
2022-07-31T04:40:36.416Z,7.65
2022-07-31T04:43:03.758Z,8.18
2022-07-31T04:45:31.124Z,7.95
2022-07-31T04:47:58.482Z,8.18
2022-07-31T04:50:31.384Z,8.25
2022-07-31T04:52:58.890Z,7.10
2022-07-31T04:55:26.173Z,7.13
2022-07-31T04:57:53.552Z,7.60
2022-07-31T05:00:21.055Z,7.38
2022-07-31T05:02:48.446Z,11.02
2022-07-31T05:05:17.711Z,8.88
2022-07-31T05:07:45.247Z,8.80
2022-07-31T05:10:32.536Z,9.27
2022-07-31T05:12:59.920Z,8.68
2022-07-31T05:15:27.506Z,9.45
2022-07-31T05:17:54.816Z,9.05
2022-07-31T05:20:23.886Z,9.20
2022-07-31T05:22:52.287Z,10.07
2022-07-31T05:25:19.672Z,11.10
2022-07-31T05:27:46.966Z,10.60
2022-07-31T05:30:17.550Z,10.82
2022-07-31T05:32:58.658Z,11.63
2022-07-31T05:35:26.121Z,10.00
2022-07-31T05:37:53.487Z,9.55
2022-07-31T05:40:20.947Z,10.27
2022-07-31T05:42:48.232Z,10.82
2022-07-31T05:45:15.578Z,11.85
2022-07-31T05:47:42.907Z,10.40
2022-07-31T05:50:10.741Z,11.30
2022-07-31T05:52:38.152Z,10.68
2022-07-31T05:55:05.817Z,10.23
2022-07-31T05:57:34.531Z,11.48
2022-07-31T06:00:03.956Z,10.23
2022-07-31T06:02:31.835Z,10.10
2022-07-31T06:04:59.134Z,10.90
2022-07-31T06:07:26.455Z,10.38
2022-07-31T06:09:53.828Z,11.15
2022-07-31T06:12:21.161Z,11.43
2022-07-31T06:14:48.446Z,11.80
2022-07-31T06:17:16.795Z,10.63
2022-07-31T06:19:44.163Z,10.73
2022-07-31T06:22:11.831Z,10.57
2022-07-31T06:24:42.527Z,10.07
2022-07-31T06:27:11.357Z,10.45
2022-07-31T06:29:58.840Z,10.02
2022-07-31T06:32:26.382Z,9.73
2022-07-31T06:34:53.774Z,10.35
2022-07-31T06:37:21.221Z,11.43
2022-07-31T06:39:56.004Z,11.00
2022-07-31T06:42:29.873Z,11.10
2022-07-31T06:44:57.311Z,11.40
2022-07-31T06:47:25.801Z,10.10
2022-07-31T06:49:53.161Z,11.55
2022-07-31T06:52:20.751Z,11.30
2022-07-31T06:54:48.186Z,12.05
2022-07-31T06:57:15.662Z,12.35
2022-07-31T06:59:43.063Z,12.23
2022-07-31T07:02:10.671Z,11.40
2022-07-31T07:04:57.839Z,12.23
2022-07-31T07:07:26.910Z,10.93
2022-07-31T07:09:59.455Z,12.23
2022-07-31T07:12:26.937Z,12.02
2022-07-31T07:14:55.915Z,11.38
2022-07-31T07:17:28.568Z,11.60
2022-07-31T07:19:56.516Z,13.10
2022-07-31T07:22:31.203Z,10.85
2022-07-31T07:24:59.230Z,11.15
2022-07-31T07:27:26.531Z,10.98
2022-07-31T07:29:54.218Z,10.25
2022-07-31T07:32:21.565Z,9.98
2022-07-31T07:34:48.932Z,9.80
2022-07-31T07:37:27.867Z,10.75
2022-07-31T07:39:55.477Z,11.90
2022-07-31T07:42:22.820Z,10.27
2022-07-31T07:44:50.161Z,8.95
2022-07-31T07:47:17.522Z,10.18
2022-07-31T07:49:45.156Z,10.13
2022-07-31T07:52:12.862Z,8.88
2022-07-31T07:54:41.140Z,10.05
2022-07-31T07:57:08.518Z,10.40
2022-07-31T07:59:36.054Z,7.82
2022-07-31T08:02:03.682Z,9.40
2022-07-31T08:04:31.908Z,8.93
2022-07-31T08:06:59.271Z,7.93
2022-07-31T08:09:26.887Z,8.98
2022-07-31T08:11:54.614Z,8.88
2022-07-31T08:14:22.153Z,8.07
2022-07-31T08:16:49.528Z,9.95
2022-07-31T08:19:16.919Z,10.25
2022-07-31T08:21:44.574Z,8.77
2022-07-31T08:24:12.638Z,7.90
2022-07-31T08:26:59.380Z,7.97
2022-07-31T08:29:29.174Z,10.27
2022-07-31T08:31:56.813Z,8.30
2022-07-31T08:34:31.246Z,8.75
2022-07-31T08:37:50.389Z,7.45
2022-07-31T08:39:48.800Z,8.40
2022-07-31T08:42:18.122Z,8.63
2022-07-31T08:44:46.197Z,7.05
2022-07-31T08:47:17.903Z,6.50
2022-07-31T08:49:52.126Z,6.50
2022-07-31T08:52:21.967Z,6.38
2022-07-31T08:54:51.194Z,6.97
2022-07-31T08:57:21.842Z,6.93
2022-07-31T08:59:52.977Z,6.45
2022-07-31T09:02:20.383Z,5.60
2022-07-31T09:04:52.262Z,5.53
2022-07-31T09:07:20.021Z,4.72
2022-07-31T09:09:52.140Z,5.22
2022-07-31T09:12:33.590Z,5.43
2022-07-31T09:15:01.798Z,5.57
2022-07-31T09:17:38.617Z,5.10
2022-07-31T09:20:06.645Z,4.38
2022-07-31T09:22:34.103Z,8.63
2022-07-31T09:25:10.138Z,5.07
2022-07-31T09:27:38.834Z,4.22
2022-07-31T09:30:07.527Z,5.85
2022-07-31T09:32:34.927Z,5.45
2022-07-31T09:35:10.016Z,4.53
2022-07-31T09:37:41.783Z,5.32
2022-07-31T09:40:09.890Z,4.00
2022-07-31T09:43:03.211Z,3.20
2022-07-31T09:45:30.793Z,3.00
2022-07-31T09:48:12.518Z,2.88
2022-07-31T09:50:53.748Z,3.10
2022-07-31T09:53:21.394Z,2.20
2022-07-31T09:55:55.626Z,8.60
2022-07-31T09:58:23.818Z,2.92
2022-07-31T10:03:25.536Z,4.13
2022-07-31T10:05:55.489Z,2.65
2022-07-31T10:08:26.814Z,2.28
2022-07-31T10:10:54.289Z,2.22
2022-07-31T10:13:35.146Z,2.17
2022-07-31T10:16:03.295Z,2.42
2022-07-31T10:18:36.024Z,3.42
2022-07-31T10:23:43.127Z,3.22
2022-07-31T10:26:11.261Z,4.32
2022-07-31T10:28:39.320Z,2.63
2022-07-31T10:31:07.030Z,2.65
2022-07-31T10:33:44.428Z,4.20
2022-07-31T10:36:12.438Z,2.33
2022-07-31T10:38:46.749Z,2.97
2022-07-31T10:41:21.955Z,3.22
2022-07-31T10:43:52.389Z,4.15
2022-07-31T10:46:32.855Z,4.05
2022-07-31T10:49:00.728Z,2.85
2022-07-31T10:51:35.704Z,3.38
2022-07-31T10:54:03.879Z,4.15
2022-07-31T10:56:44.937Z,4.35
2022-07-31T10:59:13.038Z,4.63
2022-07-31T11:01:53.072Z,2.67
2022-07-31T11:04:28.579Z,2.40
2022-07-31T11:06:55.939Z,5.95
2022-07-31T11:09:27.226Z,3.35
2022-07-31T11:11:55.384Z,5.72
2022-07-31T11:14:33.068Z,3.47
2022-07-31T11:17:00.404Z,3.28
2022-07-31T11:22:32.245Z,2.17
2022-07-31T11:24:59.266Z,2.97
2022-07-31T11:27:33.105Z,3.03
2022-07-31T11:30:12.485Z,4.53
2022-07-31T11:32:40.680Z,2.13
2022-07-31T11:35:09.109Z,2.03
2022-07-31T11:37:56.981Z,1.90
2022-07-31T11:40:27.477Z,2.28
2022-07-31T11:43:24.303Z,4.47
2022-07-31T11:45:47.222Z,4.32
2022-07-31T11:48:19.091Z,2.70
2022-07-31T11:50:54.403Z,4.40
2022-07-31T11:53:28.738Z,2.97
2022-07-31T11:55:59.874Z,3.97
2022-07-31T11:58:58.074Z,2.28
2022-07-31T12:01:28.240Z,3.05
2022-07-31T12:03:56.513Z,2.53
2022-07-31T12:06:36.613Z,2.67
2022-07-31T12:09:05.393Z,2.60
2022-07-31T12:11:33.475Z,4.07
2022-07-31T12:14:02.418Z,3.38
2022-07-31T12:16:39.232Z,6.10
2022-07-31T12:19:07.261Z,4.97
2022-07-31T12:21:39.255Z,2.50
2022-07-31T12:24:16.146Z,2.60
2022-07-31T12:26:47.000Z,2.63
2022-07-31T12:29:14.815Z,2.63
2022-07-31T12:31:48.497Z,2.35
2022-07-31T12:34:31.097Z,3.45
2022-07-31T12:37:07.215Z,3.22
2022-07-31T12:39:59.458Z,3.55
2022-07-31T12:42:37.590Z,4.07
2022-07-31T12:45:19.996Z,2.45
2022-07-31T12:47:51.835Z,2.25
2022-07-31T12:50:20.423Z,2.50
2022-07-31T12:52:47.917Z,2.80
2022-07-31T12:55:17.661Z,3.33
2022-07-31T12:57:51.421Z,2.60
2022-07-31T13:00:24.361Z,2.90
2022-07-31T13:02:52.544Z,4.00
2022-07-31T13:05:20.413Z,2.63
2022-07-31T13:07:48.109Z,2.78
2022-07-31T13:10:21.958Z,2.70
2022-07-31T13:12:51.651Z,4.13
2022-07-31T13:15:23.485Z,2.80
2022-07-31T13:17:51.681Z,2.60
2022-07-31T13:20:19.881Z,5.53
2022-07-31T13:22:47.427Z,2.83
2022-07-31T13:25:15.192Z,2.38
2022-07-31T13:27:43.372Z,2.60
2022-07-31T13:30:11.505Z,4.95
2022-07-31T13:32:39.095Z,3.28
2022-07-31T13:35:26.833Z,4.65
2022-07-31T13:38:01.867Z,3.08
2022-07-31T13:40:47.962Z,3.00
2022-07-31T13:43:15.675Z,2.63
2022-07-31T13:45:43.375Z,3.03
2022-07-31T13:48:12.244Z,2.63
2022-07-31T13:50:40.338Z,2.60
2022-07-31T13:53:07.995Z,2.72
2022-07-31T13:55:35.484Z,2.60
2022-07-31T13:58:03.218Z,2.70
2022-07-31T14:00:31.394Z,3.15
2022-07-31T14:02:59.128Z,3.50
2022-07-31T14:05:27.984Z,5.35
2022-07-31T14:08:29.921Z,2.97
2022-07-31T14:10:50.178Z,3.60
2022-07-31T14:13:19.427Z,2.70
2022-07-31T14:15:47.763Z,3.65
2022-07-31T14:18:15.273Z,2.83
2022-07-31T14:20:43.005Z,2.45
2022-07-31T14:23:10.434Z,2.50
2022-07-31T14:25:40.986Z,2.55
2022-07-31T14:28:08.820Z,2.85
2022-07-31T14:30:37.348Z,2.58
2022-07-31T14:33:05.621Z,3.40
2022-07-31T14:35:36.519Z,2.65
2022-07-31T14:38:04.629Z,2.95
2022-07-31T14:40:32.254Z,2.40
2022-07-31T14:42:59.854Z,3.35
2022-07-31T14:45:27.142Z,2.40
2022-07-31T14:47:55.670Z,2.17
2022-07-31T14:50:23.571Z,3.47
2022-07-31T14:52:51.094Z,2.88
2022-07-31T14:55:19.734Z,3.17
2022-07-31T14:57:47.080Z,2.15
2022-07-31T15:00:15.492Z,2.35
2022-07-31T15:02:44.072Z,3.50
2022-07-31T15:06:41.582Z,2.55
2022-07-31T15:08:00.106Z,3.78
2022-07-31T15:10:30.055Z,3.20
2022-07-31T15:12:57.406Z,2.83
2022-07-31T15:15:24.993Z,2.70
2022-07-31T15:17:56.151Z,4.03
2022-07-31T15:20:28.884Z,2.22
2022-07-31T15:23:00.301Z,2.92
2022-07-31T15:25:27.792Z,2.75
2022-07-31T15:27:55.076Z,3.28
2022-07-31T15:30:23.226Z,3.15
2022-07-31T15:32:52.456Z,2.67
2022-07-31T15:35:20.068Z,2.35
2022-07-31T15:37:49.733Z,2.50
2022-07-31T15:40:18.029Z,2.78
2022-07-31T15:42:45.888Z,4.95
2022-07-31T15:45:18.548Z,2.97
2022-07-31T15:47:46.774Z,3.22
2022-07-31T15:50:15.327Z,2.42
2022-07-31T15:52:42.878Z,2.65
2022-07-31T15:55:10.706Z,3.80
2022-07-31T15:57:38.652Z,5.03
2022-07-31T16:00:16.594Z,7.90
2022-07-31T16:02:45.538Z,3.63
2022-07-31T16:05:35.953Z,8.68
2022-07-31T16:08:28.875Z,2.90
2022-07-31T16:10:54.467Z,5.13
2022-07-31T16:13:23.321Z,5.10
2022-07-31T16:15:51.414Z,4.53
2022-07-31T16:18:19.048Z,3.83
2022-07-31T16:20:46.678Z,3.67
2022-07-31T16:23:15.348Z,3.38
2022-07-31T16:25:43.423Z,4.68
2022-07-31T16:28:11.177Z,3.00
2022-07-31T16:30:40.401Z,3.17
2022-07-31T16:33:08.435Z,3.85
2022-07-31T16:35:39.745Z,3.85
2022-07-31T16:38:09.373Z,3.85
2022-07-31T16:40:37.895Z,5.78
2022-07-31T16:43:50.387Z,3.10
2022-07-31T16:46:08.121Z,4.22
2022-07-31T16:48:37.513Z,3.45
2022-07-31T16:51:07.188Z,3.92
2022-07-31T16:54:13.908Z,2.90
2022-07-31T16:56:26.629Z,2.60
2022-07-31T16:58:57.003Z,2.50
2022-07-31T17:01:57.078Z,2.80
2022-07-31T17:04:20.042Z,2.55
2022-07-31T17:06:49.147Z,2.42
2022-07-31T17:09:20.319Z,2.33
2022-07-31T17:11:51.995Z,2.33
2022-07-31T17:14:23.978Z,2.63
2022-07-31T17:16:57.062Z,2.30
2022-07-31T17:19:41.202Z,4.88
2022-07-31T17:22:18.756Z,3.03
2022-07-31T17:24:54.766Z,2.47
2022-07-31T17:27:27.919Z,2.58
2022-07-31T17:30:00.496Z,2.50
2022-07-31T17:32:32.835Z,4.82
2022-07-31T17:35:06.864Z,2.80
2022-07-31T17:37:37.181Z,3.87
2022-07-31T17:40:27.236Z,2.83
2022-07-31T17:43:00.287Z,2.90
2022-07-31T17:45:50.838Z,2.30
2022-07-31T17:48:23.390Z,2.78
2022-07-31T17:50:54.120Z,2.30
2022-07-31T17:53:22.016Z,2.97
2022-07-31T17:55:52.289Z,3.38
2022-07-31T17:58:20.606Z,2.65
2022-07-31T18:00:47.937Z,2.63
2022-07-31T18:03:15.420Z,2.75
2022-07-31T18:05:42.729Z,2.63
2022-07-31T18:08:10.100Z,2.95
2022-07-31T18:10:53.571Z,2.47
2022-07-31T18:13:21.575Z,3.03
2022-07-31T18:15:49.255Z,3.17
2022-07-31T18:18:16.616Z,3.15
2022-07-31T18:20:45.929Z,3.85
2022-07-31T18:23:14.337Z,3.60
2022-07-31T18:25:42.132Z,3.05
2022-07-31T18:28:09.966Z,3.40
2022-07-31T18:30:41.104Z,3.45
2022-07-31T18:33:10.119Z,4.75
2022-07-31T18:35:37.713Z,3.30
2022-07-31T18:38:05.099Z,3.45
2022-07-31T18:40:32.913Z,3.75
2022-07-31T18:43:02.704Z,3.33
2022-07-31T18:45:30.201Z,4.68
2022-07-31T18:47:57.799Z,3.75
2022-07-31T18:51:02.244Z,4.15
2022-07-31T18:53:15.534Z,3.70
2022-07-31T18:55:43.623Z,3.50
2022-07-31T18:58:11.065Z,3.45
2022-07-31T19:00:38.628Z,8.07
2022-07-31T19:03:07.677Z,4.43
2022-07-31T19:05:35.536Z,3.55
2022-07-31T19:08:02.913Z,3.83
2022-07-31T19:10:31.463Z,2.78
2022-07-31T19:12:59.280Z,3.58
2022-07-31T19:15:27.983Z,3.10
2022-07-31T19:17:58.780Z,3.05
2022-07-31T19:20:55.720Z,3.17
2022-07-31T19:23:17.142Z,3.70
2022-07-31T19:26:01.982Z,3.53
2022-07-31T19:28:30.816Z,2.85
2022-07-31T19:30:58.396Z,3.25
2022-07-31T19:33:25.728Z,3.28
2022-07-31T19:36:00.327Z,3.28
2022-07-31T19:38:28.760Z,3.10
2022-07-31T19:40:56.133Z,2.75
2022-07-31T19:43:23.978Z,3.05
2022-07-31T19:46:09.584Z,3.85
2022-07-31T19:48:40.762Z,3.00
2022-07-31T19:51:08.234Z,3.20
2022-07-31T19:53:35.544Z,3.53
2022-07-31T19:56:05.850Z,9.15
2022-07-31T19:58:34.794Z,4.68
2022-07-31T20:01:02.682Z,3.30
2022-07-31T20:03:30.250Z,3.65
2022-07-31T20:05:57.972Z,2.70
2022-07-31T20:08:25.257Z,3.13
2022-07-31T20:10:53.243Z,3.20
2022-07-31T20:13:20.808Z,2.92
2022-07-31T20:15:51.047Z,3.05
2022-07-31T20:18:27.171Z,3.65
2022-07-31T20:20:59.225Z,3.45
2022-07-31T20:23:27.224Z,3.55
2022-07-31T20:25:54.951Z,4.10
2022-07-31T20:28:22.355Z,3.50
2022-07-31T20:30:50.464Z,2.67
2022-07-31T20:33:18.135Z,2.78
2022-07-31T20:35:48.383Z,2.95
2022-07-31T20:38:20.329Z,3.90
2022-07-31T20:40:53.588Z,3.70
2022-07-31T20:43:25.636Z,3.53
2022-07-31T20:45:53.362Z,3.80
2022-07-31T20:48:24.560Z,2.63
2022-07-31T20:50:54.552Z,2.88
2022-07-31T20:53:23.211Z,3.15
2022-07-31T20:55:50.885Z,3.17
2022-07-31T20:58:22.078Z,3.22
2022-07-31T21:00:50.502Z,3.15
2022-07-31T21:03:18.793Z,3.00
2022-07-31T21:05:46.709Z,3.08
2022-07-31T21:08:14.290Z,2.92
2022-07-31T21:10:41.783Z,2.70
2022-07-31T21:13:09.461Z,2.83
2022-07-31T21:15:43.410Z,2.63
2022-07-31T21:18:22.386Z,2.95
2022-07-31T21:20:53.458Z,3.58
2022-07-31T21:23:25.093Z,3.15
2022-07-31T21:25:53.405Z,2.95
2022-07-31T21:28:21.055Z,2.88
2022-07-31T21:30:48.845Z,2.13
2022-07-31T21:33:16.523Z,3.78
2022-07-31T21:35:44.100Z,4.07
2022-07-31T21:38:12.365Z,2.47
2022-07-31T21:40:40.255Z,2.58
2022-07-31T21:43:08.234Z,2.63
2022-07-31T21:45:55.220Z,3.17
2022-07-31T21:48:23.811Z,2.35
2022-07-31T21:50:51.508Z,2.88
2022-07-31T21:53:19.239Z,2.75
2022-07-31T21:55:47.356Z,2.72
2022-07-31T21:58:15.116Z,3.15
2022-07-31T22:00:43.149Z,3.88
2022-07-31T22:03:11.407Z,2.60
2022-07-31T22:05:58.515Z,2.70
2022-07-31T22:08:26.621Z,2.92
2022-07-31T22:10:54.359Z,2.63
2022-07-31T22:13:22.195Z,2.67
2022-07-31T22:16:00.219Z,3.45
2022-07-31T22:18:28.362Z,2.92
2022-07-31T22:20:56.200Z,3.13
2022-07-31T22:23:24.920Z,3.10
2022-07-31T22:25:52.358Z,3.10
2022-07-31T22:28:23.438Z,5.25
2022-07-31T22:30:51.444Z,3.92
2022-07-31T22:33:19.264Z,3.70
2022-07-31T22:36:00.349Z,3.60
2022-07-31T22:38:29.401Z,3.58
2022-07-31T22:40:57.099Z,3.63
2022-07-31T22:44:13.707Z,3.92
2022-07-31T22:46:15.856Z,3.83
2022-07-31T22:48:45.184Z,5.70
2022-07-31T22:51:14.500Z,4.03
2022-07-31T22:53:43.504Z,4.35
2022-07-31T22:56:10.808Z,4.85
2022-07-31T22:58:38.882Z,4.80
2022-07-31T23:01:06.584Z,3.90
2022-07-31T23:03:34.177Z,4.88
2022-07-31T23:06:02.492Z,4.00
2022-07-31T23:08:54.505Z,4.68
2022-07-31T23:11:23.551Z,4.50
2022-07-31T23:13:52.567Z,4.13
2022-07-31T23:16:20.960Z,4.20
2022-07-31T23:18:49.021Z,4.18
2022-07-31T23:21:17.029Z,5.05
2022-07-31T23:23:49.057Z,4.38
2022-07-31T23:26:21.797Z,5.25
2022-07-31T23:28:49.966Z,6.45
2022-07-31T23:31:18.434Z,4.78
2022-07-31T23:33:46.459Z,5.25
2022-07-31T23:36:14.548Z,5.25
2022-07-31T23:38:42.528Z,4.60
2022-07-31T23:41:10.049Z,4.75
2022-07-31T23:43:37.754Z,5.63
2022-07-31T23:46:05.539Z,5.63
2022-07-31T23:48:35.487Z,5.22
2022-07-31T23:51:05.913Z,7.90
2022-07-31T23:53:33.918Z,6.05
2022-07-31T23:56:01.708Z,5.72
2022-07-31T23:58:29.523Z,5.72
